sensor_id;sensor_type;location;lat;lon;timestamp;temperature;humidity
44767;DHT22;30487;48.716;9.272;2023-07-09T00:01:47;24.70;68.00
44767;DHT22;30487;48.716;9.272;2023-07-09T00:04:12;24.70;68.30
44767;DHT22;30487;48.716;9.272;2023-07-09T00:06:40;24.70;68.50
44767;DHT22;30487;48.716;9.272;2023-07-09T00:09:09;24.60;68.70
44767;DHT22;30487;48.716;9.272;2023-07-09T00:11:37;24.40;69.00
44767;DHT22;30487;48.716;9.272;2023-07-09T00:14:05;24.40;69.40
44767;DHT22;30487;48.716;9.272;2023-07-09T00:16:31;24.30;69.70
44767;DHT22;30487;48.716;9.272;2023-07-09T00:18:56;24.20;70.00
44767;DHT22;30487;48.716;9.272;2023-07-09T00:21:22;24.20;70.30
44767;DHT22;30487;48.716;9.272;2023-07-09T00:23:48;24.10;70.50
44767;DHT22;30487;48.716;9.272;2023-07-09T00:26:15;24.00;70.70
44767;DHT22;30487;48.716;9.272;2023-07-09T00:28:42;24.00;71.00
44767;DHT22;30487;48.716;9.272;2023-07-09T00:31:12;23.90;71.10
44767;DHT22;30487;48.716;9.272;2023-07-09T00:33:44;23.90;71.80
44767;DHT22;30487;48.716;9.272;2023-07-09T00:36:18;23.70;72.10
44767;DHT22;30487;48.716;9.272;2023-07-09T00:38:45;23.70;72.30
44767;DHT22;30487;48.716;9.272;2023-07-09T00:41:19;23.70;72.30
44767;DHT22;30487;48.716;9.272;2023-07-09T00:43:47;23.70;72.50
44767;DHT22;30487;48.716;9.272;2023-07-09T00:49:03;23.70;73.10
44767;DHT22;30487;48.716;9.272;2023-07-09T00:51:37;23.70;73.30
44767;DHT22;30487;48.716;9.272;2023-07-09T00:54:17;23.60;73.30
44767;DHT22;30487;48.716;9.272;2023-07-09T00:56:46;23.60;73.40
44767;DHT22;30487;48.716;9.272;2023-07-09T00:59:15;23.50;73.90
44767;DHT22;30487;48.716;9.272;2023-07-09T01:01:41;23.50;73.90
44767;DHT22;30487;48.716;9.272;2023-07-09T01:04:08;23.50;74.10
44767;DHT22;30487;48.716;9.272;2023-07-09T01:06:47;23.40;74.30
44767;DHT22;30487;48.716;9.272;2023-07-09T01:09:15;23.40;74.60
44767;DHT22;30487;48.716;9.272;2023-07-09T01:11:40;23.30;74.90
44767;DHT22;30487;48.716;9.272;2023-07-09T01:14:07;23.30;75.10
44767;DHT22;30487;48.716;9.272;2023-07-09T01:16:39;23.20;75.30
44767;DHT22;30487;48.716;9.272;2023-07-09T01:19:06;23.20;75.60
44767;DHT22;30487;48.716;9.272;2023-07-09T01:21:32;23.20;75.70
44767;DHT22;30487;48.716;9.272;2023-07-09T01:23:58;23.20;75.60
44767;DHT22;30487;48.716;9.272;2023-07-09T01:26:26;23.20;75.80
44767;DHT22;30487;48.716;9.272;2023-07-09T01:28:54;23.20;76.00
44767;DHT22;30487;48.716;9.272;2023-07-09T01:31:20;23.10;76.30
44767;DHT22;30487;48.716;9.272;2023-07-09T01:33:49;23.10;76.60
44767;DHT22;30487;48.716;9.272;2023-07-09T01:36:19;23.00;76.90
44767;DHT22;30487;48.716;9.272;2023-07-09T01:38:49;22.90;77.30
44767;DHT22;30487;48.716;9.272;2023-07-09T01:41:15;23.00;77.50
44767;DHT22;30487;48.716;9.272;2023-07-09T01:43:42;23.00;77.70
44767;DHT22;30487;48.716;9.272;2023-07-09T01:46:09;23.00;78.00
44767;DHT22;30487;48.716;9.272;2023-07-09T01:48:38;23.00;78.00
44767;DHT22;30487;48.716;9.272;2023-07-09T01:51:11;23.00;78.10
44767;DHT22;30487;48.716;9.272;2023-07-09T01:53:39;22.90;78.20
44767;DHT22;30487;48.716;9.272;2023-07-09T01:56:05;23.00;78.50
44767;DHT22;30487;48.716;9.272;2023-07-09T01:58:33;23.00;78.50
44767;DHT22;30487;48.716;9.272;2023-07-09T02:00:59;23.00;78.70
44767;DHT22;30487;48.716;9.272;2023-07-09T02:03:27;23.00;78.70
44767;DHT22;30487;48.716;9.272;2023-07-09T02:05:54;23.00;79.00
44767;DHT22;30487;48.716;9.272;2023-07-09T02:08:20;22.90;79.30
44767;DHT22;30487;48.716;9.272;2023-07-09T02:10:48;22.90;79.60
44767;DHT22;30487;48.716;9.272;2023-07-09T02:13:14;22.90;79.80
44767;DHT22;30487;48.716;9.272;2023-07-09T02:15:41;22.80;80.10
44767;DHT22;30487;48.716;9.272;2023-07-09T02:18:12;22.80;80.40
44767;DHT22;30487;48.716;9.272;2023-07-09T02:20:38;22.70;80.60
44767;DHT22;30487;48.716;9.272;2023-07-09T02:23:05;22.50;81.20
44767;DHT22;30487;48.716;9.272;2023-07-09T02:25:30;22.50;81.60
44767;DHT22;30487;48.716;9.272;2023-07-09T02:27:56;22.50;82.10
44767;DHT22;30487;48.716;9.272;2023-07-09T02:30:21;22.50;82.50
44767;DHT22;30487;48.716;9.272;2023-07-09T02:32:47;22.50;82.60
44767;DHT22;30487;48.716;9.272;2023-07-09T02:35:12;22.40;82.90
44767;DHT22;30487;48.716;9.272;2023-07-09T02:37:38;22.30;83.40
44767;DHT22;30487;48.716;9.272;2023-07-09T02:40:04;22.20;84.00
44767;DHT22;30487;48.716;9.272;2023-07-09T02:42:30;22.20;84.60
44767;DHT22;30487;48.716;9.272;2023-07-09T02:44:56;22.10;85.30
44767;DHT22;30487;48.716;9.272;2023-07-09T02:47:21;22.10;85.90
44767;DHT22;30487;48.716;9.272;2023-07-09T02:49:47;22.10;86.60
44767;DHT22;30487;48.716;9.272;2023-07-09T02:52:13;22.10;87.00
44767;DHT22;30487;48.716;9.272;2023-07-09T02:54:39;22.10;87.40
44767;DHT22;30487;48.716;9.272;2023-07-09T02:57:05;22.10;87.70
44767;DHT22;30487;48.716;9.272;2023-07-09T02:59:30;22.10;88.30
44767;DHT22;30487;48.716;9.272;2023-07-09T03:01:56;22.10;88.60
44767;DHT22;30487;48.716;9.272;2023-07-09T03:04:22;22.00;89.40
44767;DHT22;30487;48.716;9.272;2023-07-09T03:06:48;22.00;89.90
44767;DHT22;30487;48.716;9.272;2023-07-09T03:09:14;22.00;90.20
44767;DHT22;30487;48.716;9.272;2023-07-09T03:11:39;22.00;90.50
44767;DHT22;30487;48.716;9.272;2023-07-09T03:14:05;22.00;90.70
44767;DHT22;30487;48.716;9.272;2023-07-09T03:16:33;22.00;90.90
44767;DHT22;30487;48.716;9.272;2023-07-09T03:19:00;22.00;91.00
44767;DHT22;30487;48.716;9.272;2023-07-09T03:21:27;22.00;91.30
44767;DHT22;30487;48.716;9.272;2023-07-09T03:23:53;22.00;91.60
44767;DHT22;30487;48.716;9.272;2023-07-09T03:26:19;21.90;91.90
44767;DHT22;30487;48.716;9.272;2023-07-09T03:28:46;21.90;92.40
44767;DHT22;30487;48.716;9.272;2023-07-09T03:31:11;21.80;92.60
44767;DHT22;30487;48.716;9.272;2023-07-09T03:33:37;21.80;93.00
44767;DHT22;30487;48.716;9.272;2023-07-09T03:36:03;21.80;93.60
44767;DHT22;30487;48.716;9.272;2023-07-09T03:38:30;21.70;94.10
44767;DHT22;30487;48.716;9.272;2023-07-09T03:40:55;21.70;94.40
44767;DHT22;30487;48.716;9.272;2023-07-09T03:43:22;21.60;94.90
44767;DHT22;30487;48.716;9.272;2023-07-09T03:45:48;21.60;95.30
44767;DHT22;30487;48.716;9.272;2023-07-09T03:48:15;21.50;95.50
44767;DHT22;30487;48.716;9.272;2023-07-09T03:50:42;21.50;96.10
44767;DHT22;30487;48.716;9.272;2023-07-09T03:53:08;21.40;96.50
44767;DHT22;30487;48.716;9.272;2023-07-09T03:55:34;21.30;96.90
44767;DHT22;30487;48.716;9.272;2023-07-09T03:57:59;21.30;97.30
44767;DHT22;30487;48.716;9.272;2023-07-09T04:00:25;21.30;97.70
44767;DHT22;30487;48.716;9.272;2023-07-09T04:02:51;21.30;98.00
44767;DHT22;30487;48.716;9.272;2023-07-09T04:05:17;21.40;98.20
44767;DHT22;30487;48.716;9.272;2023-07-09T04:07:44;21.40;98.30
44767;DHT22;30487;48.716;9.272;2023-07-09T04:10:09;21.50;98.50
44767;DHT22;30487;48.716;9.272;2023-07-09T04:12:35;21.50;98.60
44767;DHT22;30487;48.716;9.272;2023-07-09T04:15:05;21.40;98.90
44767;DHT22;30487;48.716;9.272;2023-07-09T04:17:31;21.40;99.20
44767;DHT22;30487;48.716;9.272;2023-07-09T04:19:57;21.40;99.40
44767;DHT22;30487;48.716;9.272;2023-07-09T04:22:22;21.40;99.50
44767;DHT22;30487;48.716;9.272;2023-07-09T04:24:48;21.40;99.60
44767;DHT22;30487;48.716;9.272;2023-07-09T04:27:15;21.50;99.70
44767;DHT22;30487;48.716;9.272;2023-07-09T04:29:41;21.50;99.70
44767;DHT22;30487;48.716;9.272;2023-07-09T04:32:08;21.50;99.80
44767;DHT22;30487;48.716;9.272;2023-07-09T04:34:36;21.50;99.90
44767;DHT22;30487;48.716;9.272;2023-07-09T04:37:08;21.50;99.90
44767;DHT22;30487;48.716;9.272;2023-07-09T04:39:34;21.50;99.90
44767;DHT22;30487;48.716;9.272;2023-07-09T04:42:00;21.50;99.90
44767;DHT22;30487;48.716;9.272;2023-07-09T04:44:26;21.50;99.90
44767;DHT22;30487;48.716;9.272;2023-07-09T04:46:51;21.40;99.90
44767;DHT22;30487;48.716;9.272;2023-07-09T04:49:17;21.40;99.90
44767;DHT22;30487;48.716;9.272;2023-07-09T04:51:42;21.40;99.90
44767;DHT22;30487;48.716;9.272;2023-07-09T04:54:08;21.40;99.90
44767;DHT22;30487;48.716;9.272;2023-07-09T04:56:34;21.50;99.90
44767;DHT22;30487;48.716;9.272;2023-07-09T04:58:59;21.60;99.90
44767;DHT22;30487;48.716;9.272;2023-07-09T05:01:25;21.60;99.90
44767;DHT22;30487;48.716;9.272;2023-07-09T05:03:50;21.60;99.90
44767;DHT22;30487;48.716;9.272;2023-07-09T05:06:16;21.60;99.90
44767;DHT22;30487;48.716;9.272;2023-07-09T05:08:42;21.60;99.90
44767;DHT22;30487;48.716;9.272;2023-07-09T05:11:09;21.70;99.90
44767;DHT22;30487;48.716;9.272;2023-07-09T05:13:36;21.80;99.90
44767;DHT22;30487;48.716;9.272;2023-07-09T05:16:02;21.70;99.90
44767;DHT22;30487;48.716;9.272;2023-07-09T05:18:27;21.70;99.90
44767;DHT22;30487;48.716;9.272;2023-07-09T05:20:53;21.70;99.90
44767;DHT22;30487;48.716;9.272;2023-07-09T05:23:18;21.70;99.90
44767;DHT22;30487;48.716;9.272;2023-07-09T05:25:44;21.70;99.90
44767;DHT22;30487;48.716;9.272;2023-07-09T05:28:09;21.80;99.90
44767;DHT22;30487;48.716;9.272;2023-07-09T05:30:35;21.90;99.90
44767;DHT22;30487;48.716;9.272;2023-07-09T05:33:01;22.00;99.90
44767;DHT22;30487;48.716;9.272;2023-07-09T05:35:27;22.10;99.90
44767;DHT22;30487;48.716;9.272;2023-07-09T05:37:53;22.20;99.90
44767;DHT22;30487;48.716;9.272;2023-07-09T05:40:20;22.20;99.90
44767;DHT22;30487;48.716;9.272;2023-07-09T05:42:47;22.30;99.90
44767;DHT22;30487;48.716;9.272;2023-07-09T05:45:13;22.30;99.90
44767;DHT22;30487;48.716;9.272;2023-07-09T05:47:38;22.40;99.90
44767;DHT22;30487;48.716;9.272;2023-07-09T05:50:05;22.40;99.90
44767;DHT22;30487;48.716;9.272;2023-07-09T05:52:30;22.40;99.90
44767;DHT22;30487;48.716;9.272;2023-07-09T05:54:56;22.40;99.90
44767;DHT22;30487;48.716;9.272;2023-07-09T05:57:22;22.50;99.90
44767;DHT22;30487;48.716;9.272;2023-07-09T05:59:48;22.60;99.90
44767;DHT22;30487;48.716;9.272;2023-07-09T06:02:15;22.70;99.90
44767;DHT22;30487;48.716;9.272;2023-07-09T06:04:41;22.70;99.90
44767;DHT22;30487;48.716;9.272;2023-07-09T06:07:07;22.80;99.90
44767;DHT22;30487;48.716;9.272;2023-07-09T06:09:34;22.70;99.90
44767;DHT22;30487;48.716;9.272;2023-07-09T06:11:59;22.70;99.90
44767;DHT22;30487;48.716;9.272;2023-07-09T06:14:26;22.70;99.90
44767;DHT22;30487;48.716;9.272;2023-07-09T06:16:52;22.80;99.90
44767;DHT22;30487;48.716;9.272;2023-07-09T06:19:17;22.80;99.90
44767;DHT22;30487;48.716;9.272;2023-07-09T06:21:43;22.90;99.90
44767;DHT22;30487;48.716;9.272;2023-07-09T06:24:09;23.00;99.90
44767;DHT22;30487;48.716;9.272;2023-07-09T06:26:35;23.20;99.90
44767;DHT22;30487;48.716;9.272;2023-07-09T06:29:00;23.30;99.90
44767;DHT22;30487;48.716;9.272;2023-07-09T06:31:26;23.40;99.90
44767;DHT22;30487;48.716;9.272;2023-07-09T06:33:52;23.50;99.70
44767;DHT22;30487;48.716;9.272;2023-07-09T06:36:18;23.60;99.20
44767;DHT22;30487;48.716;9.272;2023-07-09T06:38:44;23.70;98.80
44767;DHT22;30487;48.716;9.272;2023-07-09T06:41:11;23.70;98.80
44767;DHT22;30487;48.716;9.272;2023-07-09T06:43:37;23.80;99.20
44767;DHT22;30487;48.716;9.272;2023-07-09T06:46:07;23.90;98.50
44767;DHT22;30487;48.716;9.272;2023-07-09T06:48:33;24.00;98.30
44767;DHT22;30487;48.716;9.272;2023-07-09T06:50:59;24.10;98.20
44767;DHT22;30487;48.716;9.272;2023-07-09T06:53:26;24.20;97.60
44767;DHT22;30487;48.716;9.272;2023-07-09T06:55:52;24.20;97.70
44767;DHT22;30487;48.716;9.272;2023-07-09T06:58:21;24.20;97.50
44767;DHT22;30487;48.716;9.272;2023-07-09T07:00:49;24.20;97.60
44767;DHT22;30487;48.716;9.272;2023-07-09T07:03:15;24.20;97.50
44767;DHT22;30487;48.716;9.272;2023-07-09T07:05:45;24.20;97.70
44767;DHT22;30487;48.716;9.272;2023-07-09T07:08:13;24.40;97.50
44767;DHT22;30487;48.716;9.272;2023-07-09T07:10:39;24.50;97.30
44767;DHT22;30487;48.716;9.272;2023-07-09T07:13:04;24.60;97.00
44767;DHT22;30487;48.716;9.272;2023-07-09T07:15:30;24.80;96.60
44767;DHT22;30487;48.716;9.272;2023-07-09T07:17:55;25.00;96.50
44767;DHT22;30487;48.716;9.272;2023-07-09T07:20:21;25.10;95.90
44767;DHT22;30487;48.716;9.272;2023-07-09T07:22:47;25.10;95.40
44767;DHT22;30487;48.716;9.272;2023-07-09T07:25:12;25.20;95.00
44767;DHT22;30487;48.716;9.272;2023-07-09T07:27:38;25.20;94.90
44767;DHT22;30487;48.716;9.272;2023-07-09T07:30:05;25.30;94.50
44767;DHT22;30487;48.716;9.272;2023-07-09T07:32:35;25.40;94.20
44767;DHT22;30487;48.716;9.272;2023-07-09T07:35:00;25.50;94.20
44767;DHT22;30487;48.716;9.272;2023-07-09T07:37:26;25.60;94.30
44767;DHT22;30487;48.716;9.272;2023-07-09T07:39:51;25.80;94.20
44767;DHT22;30487;48.716;9.272;2023-07-09T07:42:17;26.00;93.50
44767;DHT22;30487;48.716;9.272;2023-07-09T07:44:43;26.10;93.40
44767;DHT22;30487;48.716;9.272;2023-07-09T07:47:08;26.20;93.00
44767;DHT22;30487;48.716;9.272;2023-07-09T07:49:34;26.30;93.10
44767;DHT22;30487;48.716;9.272;2023-07-09T07:51:59;26.50;92.90
44767;DHT22;30487;48.716;9.272;2023-07-09T07:54:29;26.60;92.50
44767;DHT22;30487;48.716;9.272;2023-07-09T07:56:55;26.80;92.30
44767;DHT22;30487;48.716;9.272;2023-07-09T07:59:20;27.00;91.80
44767;DHT22;30487;48.716;9.272;2023-07-09T08:01:46;27.10;91.50
44767;DHT22;30487;48.716;9.272;2023-07-09T08:04:11;27.20;91.20
44767;DHT22;30487;48.716;9.272;2023-07-09T08:06:37;27.40;90.80
44767;DHT22;30487;48.716;9.272;2023-07-09T08:09:03;27.50;90.60
44767;DHT22;30487;48.716;9.272;2023-07-09T08:11:28;27.60;90.10
44767;DHT22;30487;48.716;9.272;2023-07-09T08:13:55;27.60;88.80
44767;DHT22;30487;48.716;9.272;2023-07-09T08:16:21;27.70;89.20
44767;DHT22;30487;48.716;9.272;2023-07-09T08:18:46;27.90;88.50
44767;DHT22;30487;48.716;9.272;2023-07-09T08:21:12;28.10;87.90
44767;DHT22;30487;48.716;9.272;2023-07-09T08:23:39;28.20;86.60
44767;DHT22;30487;48.716;9.272;2023-07-09T08:26:05;28.30;85.70
44767;DHT22;30487;48.716;9.272;2023-07-09T08:28:30;28.40;85.40
44767;DHT22;30487;48.716;9.272;2023-07-09T08:30:57;28.50;84.40
44767;DHT22;30487;48.716;9.272;2023-07-09T08:33:23;28.70;84.30
44767;DHT22;30487;48.716;9.272;2023-07-09T08:35:51;29.00;83.70
44767;DHT22;30487;48.716;9.272;2023-07-09T08:38:17;29.00;82.30
44767;DHT22;30487;48.716;9.272;2023-07-09T08:40:59;29.10;79.90
44767;DHT22;30487;48.716;9.272;2023-07-09T08:48:46;29.40;79.00
44767;DHT22;30487;48.716;9.272;2023-07-09T08:54:02;29.70;77.70
44767;DHT22;30487;48.716;9.272;2023-07-09T08:56:31;29.90;76.80
44767;DHT22;30487;48.716;9.272;2023-07-09T08:58:59;30.10;76.30
44767;DHT22;30487;48.716;9.272;2023-07-09T09:01:31;30.20;76.00
44767;DHT22;30487;48.716;9.272;2023-07-09T09:04:05;30.30;73.70
44767;DHT22;30487;48.716;9.272;2023-07-09T09:06:31;30.50;73.60
44767;DHT22;30487;48.716;9.272;2023-07-09T09:09:24;30.70;73.20
44767;DHT22;30487;48.716;9.272;2023-07-09T09:12:16;30.90;72.30
44767;DHT22;30487;48.716;9.272;2023-07-09T09:14:48;31.20;72.40
44767;DHT22;30487;48.716;9.272;2023-07-09T09:17:20;31.20;72.30
44767;DHT22;30487;48.716;9.272;2023-07-09T09:19:55;31.40;68.80
44767;DHT22;30487;48.716;9.272;2023-07-09T09:22:57;31.40;67.00
44767;DHT22;30487;48.716;9.272;2023-07-09T09:27:40;31.60;66.10
44767;DHT22;30487;48.716;9.272;2023-07-09T09:30:14;31.40;66.00
44767;DHT22;30487;48.716;9.272;2023-07-09T09:33:01;31.40;65.80
44767;DHT22;30487;48.716;9.272;2023-07-09T09:37:58;31.70;66.60
44767;DHT22;30487;48.716;9.272;2023-07-09T09:40:26;31.90;66.50
44767;DHT22;30487;48.716;9.272;2023-07-09T09:42:55;32.00;63.80
44767;DHT22;30487;48.716;9.272;2023-07-09T09:45:27;32.10;64.20
44767;DHT22;30487;48.716;9.272;2023-07-09T09:47:59;32.20;63.50
44767;DHT22;30487;48.716;9.272;2023-07-09T09:50:30;32.40;64.50
44767;DHT22;30487;48.716;9.272;2023-07-09T09:52:57;32.70;61.60
44767;DHT22;30487;48.716;9.272;2023-07-09T09:55:28;32.60;61.20
44767;DHT22;30487;48.716;9.272;2023-07-09T09:57:54;32.60;61.30
44767;DHT22;30487;48.716;9.272;2023-07-09T10:00:25;32.80;61.40
44767;DHT22;30487;48.716;9.272;2023-07-09T10:02:56;32.90;60.70
44767;DHT22;30487;48.716;9.272;2023-07-09T10:05:34;33.00;61.10
44767;DHT22;30487;48.716;9.272;2023-07-09T10:10:47;33.20;59.60
44767;DHT22;30487;48.716;9.272;2023-07-09T10:13:32;33.40;59.20
44767;DHT22;30487;48.716;9.272;2023-07-09T10:16:23;33.70;58.40
44767;DHT22;30487;48.716;9.272;2023-07-09T10:19:09;33.90;57.60
44767;DHT22;30487;48.716;9.272;2023-07-09T10:21:49;34.00;56.90
44767;DHT22;30487;48.716;9.272;2023-07-09T10:27:11;34.10;56.70
44767;DHT22;30487;48.716;9.272;2023-07-09T10:29:44;34.30;56.90
44767;DHT22;30487;48.716;9.272;2023-07-09T10:32:21;34.40;56.50
44767;DHT22;30487;48.716;9.272;2023-07-09T10:35:05;34.50;57.90
44767;DHT22;30487;48.716;9.272;2023-07-09T10:37:51;34.40;55.30
44767;DHT22;30487;48.716;9.272;2023-07-09T10:40:39;34.40;56.20
44767;DHT22;30487;48.716;9.272;2023-07-09T10:43:11;34.40;56.30
44767;DHT22;30487;48.716;9.272;2023-07-09T10:45:39;34.60;56.30
44767;DHT22;30487;48.716;9.272;2023-07-09T10:48:16;34.80;56.50
44767;DHT22;30487;48.716;9.272;2023-07-09T10:50:49;34.90;56.90
44767;DHT22;30487;48.716;9.272;2023-07-09T10:58:19;35.20;55.20
44767;DHT22;30487;48.716;9.272;2023-07-09T11:00:48;35.40;54.40
44767;DHT22;30487;48.716;9.272;2023-07-09T11:03:24;35.60;53.10
44767;DHT22;30487;48.716;9.272;2023-07-09T11:05:54;35.60;53.10
44767;DHT22;30487;48.716;9.272;2023-07-09T11:08:31;35.60;53.60
44767;DHT22;30487;48.716;9.272;2023-07-09T11:11:01;35.70;53.80
44767;DHT22;30487;48.716;9.272;2023-07-09T11:13:35;35.80;52.50
44767;DHT22;30487;48.716;9.272;2023-07-09T11:16:03;35.90;51.60
44767;DHT22;30487;48.716;9.272;2023-07-09T11:18:33;36.00;50.90
44767;DHT22;30487;48.716;9.272;2023-07-09T11:21:07;35.80;50.40
44767;DHT22;30487;48.716;9.272;2023-07-09T11:23:51;35.70;50.60
44767;DHT22;30487;48.716;9.272;2023-07-09T11:26:34;36.00;50.30
44767;DHT22;30487;48.716;9.272;2023-07-09T11:31:35;35.70;49.40
44767;DHT22;30487;48.716;9.272;2023-07-09T11:34:08;35.80;49.40
44767;DHT22;30487;48.716;9.272;2023-07-09T11:36:45;35.90;49.10
44767;DHT22;30487;48.716;9.272;2023-07-09T11:39:21;35.90;48.60
44767;DHT22;30487;48.716;9.272;2023-07-09T11:41:47;36.00;49.80
44767;DHT22;30487;48.716;9.272;2023-07-09T11:44:22;36.10;49.10
44767;DHT22;30487;48.716;9.272;2023-07-09T11:49:34;36.80;49.10
44767;DHT22;30487;48.716;9.272;2023-07-09T11:52:04;37.00;49.40
44767;DHT22;30487;48.716;9.272;2023-07-09T11:54:35;37.40;49.00
44767;DHT22;30487;48.716;9.272;2023-07-09T11:57:02;37.70;48.60
44767;DHT22;30487;48.716;9.272;2023-07-09T11:59:28;37.80;47.80
44767;DHT22;30487;48.716;9.272;2023-07-09T12:01:54;38.00;47.60
44767;DHT22;30487;48.716;9.272;2023-07-09T12:04:31;37.70;47.10
44767;DHT22;30487;48.716;9.272;2023-07-09T12:06:59;37.50;47.50
44767;DHT22;30487;48.716;9.272;2023-07-09T12:09:32;37.90;48.20
44767;DHT22;30487;48.716;9.272;2023-07-09T12:11:58;38.40;48.10
44767;DHT22;30487;48.716;9.272;2023-07-09T12:14:23;38.60;48.00
44767;DHT22;30487;48.716;9.272;2023-07-09T12:16:52;38.70;46.70
44767;DHT22;30487;48.716;9.272;2023-07-09T12:19:20;38.10;46.30
44767;DHT22;30487;48.716;9.272;2023-07-09T12:21:48;37.60;51.30
44767;DHT22;30487;48.716;9.272;2023-07-09T12:24:25;37.70;47.90
44767;DHT22;30487;48.716;9.272;2023-07-09T12:26:55;38.60;46.30
44767;DHT22;30487;48.716;9.272;2023-07-09T12:29:35;39.30;45.60
44767;DHT22;30487;48.716;9.272;2023-07-09T12:32:11;40.40;45.70
44767;DHT22;30487;48.716;9.272;2023-07-09T12:34:37;41.10;45.00
44767;DHT22;30487;48.716;9.272;2023-07-09T12:37:03;41.40;43.70
44767;DHT22;30487;48.716;9.272;2023-07-09T12:39:31;41.90;43.50
44767;DHT22;30487;48.716;9.272;2023-07-09T12:42:01;42.70;43.40
44767;DHT22;30487;48.716;9.272;2023-07-09T12:44:31;43.30;42.90
44767;DHT22;30487;48.716;9.272;2023-07-09T12:46:59;42.60;42.10
44767;DHT22;30487;48.716;9.272;2023-07-09T12:49:27;42.50;42.70
44767;DHT22;30487;48.716;9.272;2023-07-09T12:51:57;42.80;42.00
44767;DHT22;30487;48.716;9.272;2023-07-09T12:54:23;42.50;42.50
44767;DHT22;30487;48.716;9.272;2023-07-09T12:56:56;42.20;42.60
44767;DHT22;30487;48.716;9.272;2023-07-09T12:59:36;42.70;42.70
44767;DHT22;30487;48.716;9.272;2023-07-09T13:02:24;43.20;42.30
44767;DHT22;30487;48.716;9.272;2023-07-09T13:05:02;43.90;42.30
44767;DHT22;30487;48.716;9.272;2023-07-09T13:07:32;43.60;41.60
44767;DHT22;30487;48.716;9.272;2023-07-09T13:12:41;43.60;41.80
44767;DHT22;30487;48.716;9.272;2023-07-09T13:15:24;43.90;41.20
44767;DHT22;30487;48.716;9.272;2023-07-09T13:17:59;44.00;40.90
44767;DHT22;30487;48.716;9.272;2023-07-09T13:20:26;43.60;41.60
44767;DHT22;30487;48.716;9.272;2023-07-09T13:22:52;43.10;41.70
44767;DHT22;30487;48.716;9.272;2023-07-09T13:25:18;43.00;41.40
44767;DHT22;30487;48.716;9.272;2023-07-09T13:27:44;43.00;41.20
44767;DHT22;30487;48.716;9.272;2023-07-09T13:30:11;42.90;41.30
44767;DHT22;30487;48.716;9.272;2023-07-09T13:32:37;42.30;41.50
44767;DHT22;30487;48.716;9.272;2023-07-09T13:35:08;41.90;42.10
44767;DHT22;30487;48.716;9.272;2023-07-09T13:37:37;41.50;42.30
44767;DHT22;30487;48.716;9.272;2023-07-09T13:40:03;41.00;42.70
44767;DHT22;30487;48.716;9.272;2023-07-09T13:42:29;40.60;43.00
44767;DHT22;30487;48.716;9.272;2023-07-09T13:44:54;40.40;43.20
44767;DHT22;30487;48.716;9.272;2023-07-09T13:47:21;39.90;42.70
44767;DHT22;30487;48.716;9.272;2023-07-09T13:49:47;39.50;43.80
44767;DHT22;30487;48.716;9.272;2023-07-09T13:52:21;39.40;44.00
44767;DHT22;30487;48.716;9.272;2023-07-09T13:54:48;39.30;43.40
44767;DHT22;30487;48.716;9.272;2023-07-09T13:57:18;39.10;43.70
44767;DHT22;30487;48.716;9.272;2023-07-09T13:59:45;39.10;43.70
44767;DHT22;30487;48.716;9.272;2023-07-09T14:02:19;39.00;43.50
44767;DHT22;30487;48.716;9.272;2023-07-09T14:04:45;38.80;42.30
44767;DHT22;30487;48.716;9.272;2023-07-09T14:07:33;38.60;42.50
44767;DHT22;30487;48.716;9.272;2023-07-09T14:10:00;38.20;43.10
44767;DHT22;30487;48.716;9.272;2023-07-09T14:12:27;37.70;43.00
44767;DHT22;30487;48.716;9.272;2023-07-09T14:14:56;37.60;43.20
44767;DHT22;30487;48.716;9.272;2023-07-09T14:17:23;37.30;43.50
44767;DHT22;30487;48.716;9.272;2023-07-09T14:19:49;37.20;43.90
44767;DHT22;30487;48.716;9.272;2023-07-09T14:22:33;37.10;44.10
44767;DHT22;30487;48.716;9.272;2023-07-09T14:24:59;37.00;44.80
44767;DHT22;30487;48.716;9.272;2023-07-09T14:27:25;36.40;44.30
44767;DHT22;30487;48.716;9.272;2023-07-09T14:29:51;36.20;44.20
44767;DHT22;30487;48.716;9.272;2023-07-09T14:32:44;36.30;44.50
44767;DHT22;30487;48.716;9.272;2023-07-09T14:35:15;36.00;44.10
44767;DHT22;30487;48.716;9.272;2023-07-09T14:37:42;36.00;43.90
44767;DHT22;30487;48.716;9.272;2023-07-09T14:40:09;36.00;44.80
44767;DHT22;30487;48.716;9.272;2023-07-09T14:42:35;36.10;43.80
44767;DHT22;30487;48.716;9.272;2023-07-09T14:45:01;36.20;44.00
44767;DHT22;30487;48.716;9.272;2023-07-09T14:47:28;36.20;43.50
44767;DHT22;30487;48.716;9.272;2023-07-09T14:49:54;36.40;43.50
44767;DHT22;30487;48.716;9.272;2023-07-09T14:52:20;36.30;43.90
44767;DHT22;30487;48.716;9.272;2023-07-09T14:54:50;36.40;44.70
44767;DHT22;30487;48.716;9.272;2023-07-09T14:57:21;36.50;44.60
44767;DHT22;30487;48.716;9.272;2023-07-09T14:59:48;36.50;43.70
44767;DHT22;30487;48.716;9.272;2023-07-09T15:02:35;36.50;44.30
44767;DHT22;30487;48.716;9.272;2023-07-09T15:05:03;36.50;44.60
44767;DHT22;30487;48.716;9.272;2023-07-09T15:07:29;36.50;44.70
44767;DHT22;30487;48.716;9.272;2023-07-09T15:09:59;36.40;44.80
44767;DHT22;30487;48.716;9.272;2023-07-09T15:12:29;36.50;45.00
44767;DHT22;30487;48.716;9.272;2023-07-09T15:15:03;36.60;45.10
44767;DHT22;30487;48.716;9.272;2023-07-09T15:17:31;36.70;45.10
44767;DHT22;30487;48.716;9.272;2023-07-09T15:19:57;36.90;44.60
44767;DHT22;30487;48.716;9.272;2023-07-09T15:22:30;36.90;43.60
44767;DHT22;30487;48.716;9.272;2023-07-09T15:24:56;37.00;43.80
44767;DHT22;30487;48.716;9.272;2023-07-09T15:27:22;37.00;43.60
44767;DHT22;30487;48.716;9.272;2023-07-09T15:29:48;36.80;43.20
44767;DHT22;30487;48.716;9.272;2023-07-09T15:32:14;36.50;43.30
44767;DHT22;30487;48.716;9.272;2023-07-09T15:34:39;36.30;43.70
44767;DHT22;30487;48.716;9.272;2023-07-09T15:37:12;36.30;43.40
44767;DHT22;30487;48.716;9.272;2023-07-09T15:39:38;36.20;43.70
44767;DHT22;30487;48.716;9.272;2023-07-09T15:42:12;36.20;43.30
44767;DHT22;30487;48.716;9.272;2023-07-09T15:44:38;36.20;43.40
44767;DHT22;30487;48.716;9.272;2023-07-09T15:47:04;36.20;43.70
44767;DHT22;30487;48.716;9.272;2023-07-09T15:49:32;36.30;44.20
44767;DHT22;30487;48.716;9.272;2023-07-09T15:51:57;36.30;43.40
44767;DHT22;30487;48.716;9.272;2023-07-09T15:54:24;36.50;43.40
44767;DHT22;30487;48.716;9.272;2023-07-09T15:56:51;36.50;43.30
44767;DHT22;30487;48.716;9.272;2023-07-09T15:59:31;36.80;43.70
44767;DHT22;30487;48.716;9.272;2023-07-09T16:01:57;36.70;42.80
44767;DHT22;30487;48.716;9.272;2023-07-09T16:04:24;36.60;43.10
44767;DHT22;30487;48.716;9.272;2023-07-09T16:06:51;36.50;42.90
44767;DHT22;30487;48.716;9.272;2023-07-09T16:09:20;36.40;42.50
44767;DHT22;30487;48.716;9.272;2023-07-09T16:11:48;36.20;42.80
44767;DHT22;30487;48.716;9.272;2023-07-09T16:14:29;36.20;42.20